createdAt,value
2022-12-08T00:00:56.663Z,2.60
2022-12-08T00:05:16.882Z,1.70
2022-12-08T00:09:23.537Z,2.75
2022-12-08T00:13:25.328Z,0.30
2022-12-08T00:17:27.024Z,2.97
2022-12-08T00:21:29.500Z,1.33
2022-12-08T00:25:35.037Z,0.55
2022-12-08T00:29:37.065Z,1.90
2022-12-08T00:33:39.440Z,1.75
2022-12-08T00:37:41.156Z,3.17
2022-12-08T00:42:03.375Z,1.15
2022-12-08T00:46:05.287Z,1.98
2022-12-08T00:50:08.231Z,1.92
2022-12-08T00:54:11.039Z,0.70
2022-12-08T00:58:12.752Z,0.47
2022-12-08T01:02:15.077Z,8.85
2022-12-08T01:06:17.173Z,1.95
2022-12-08T01:10:18.890Z,1.50
2022-12-08T01:14:21.189Z,4.68
2022-12-08T01:18:22.886Z,2.15
2022-12-08T01:22:24.772Z,3.90
2022-12-08T01:26:26.745Z,4.95
2022-12-08T01:30:28.589Z,3.40
2022-12-08T01:34:30.413Z,4.65
2022-12-08T01:38:32.845Z,4.97
2022-12-08T01:42:34.742Z,3.28
2022-12-08T01:46:42.220Z,4.25
2022-12-08T01:50:44.681Z,7.87
2022-12-08T01:54:51.596Z,1.38
2022-12-08T01:58:55.825Z,3.85
2022-12-08T02:03:12.033Z,1.30
2022-12-08T02:07:16.469Z,1.50
2022-12-08T02:11:18.256Z,3.47
2022-12-08T02:15:24.291Z,2.15
2022-12-08T02:19:57.993Z,1.77
2022-12-08T02:24:21.568Z,1.70
2022-12-08T02:28:32.084Z,9.85
2022-12-08T02:32:36.386Z,1.98
2022-12-08T02:36:49.199Z,0.75
2022-12-08T02:41:20.661Z,0.88
2022-12-08T02:45:33.649Z,1.98
2022-12-08T02:49:36.044Z,2.58
2022-12-08T02:53:37.862Z,6.13
2022-12-08T02:58:16.667Z,0.63
2022-12-08T03:02:53.897Z,0.55
2022-12-08T03:07:33.895Z,6.70
2022-12-08T03:12:03.188Z,8.48
2022-12-08T03:16:09.047Z,4.93
2022-12-08T03:20:16.493Z,0.85
2022-12-08T03:24:20.032Z,1.23
2022-12-08T03:28:22.118Z,1.15
2022-12-08T03:32:28.551Z,3.08
2022-12-08T03:36:30.277Z,1.73
2022-12-08T03:40:32.011Z,3.67
2022-12-08T03:44:33.803Z,6.00
2022-12-08T03:48:35.446Z,7.15
2022-12-08T03:52:37.127Z,4.55
2022-12-08T03:56:41.446Z,0.98
2022-12-08T04:00:43.219Z,5.63
2022-12-08T04:04:44.880Z,2.53
2022-12-08T04:08:46.653Z,1.85
2022-12-08T04:12:48.352Z,4.95
2022-12-08T04:16:50.081Z,0.32
2022-12-08T04:20:51.754Z,4.57
2022-12-08T04:24:53.415Z,4.22
2022-12-08T04:28:55.184Z,0.52
2022-12-08T04:32:56.865Z,0.38
2022-12-08T04:36:58.521Z,2.85
2022-12-08T04:41:00.733Z,6.13
2022-12-08T04:45:02.624Z,2.17
2022-12-08T04:49:04.316Z,1.25
2022-12-08T04:53:06.053Z,0.40
2022-12-08T04:57:07.808Z,2.03
2022-12-08T05:01:09.773Z,3.10
2022-12-08T05:05:11.619Z,0.30
2022-12-08T05:09:13.359Z,1.45
2022-12-08T05:13:15.036Z,0.45
2022-12-08T05:17:18.050Z,0.20
2022-12-08T05:21:19.760Z,0.68
2022-12-08T05:25:21.496Z,3.42
2022-12-08T05:29:23.432Z,2.40
2022-12-08T05:33:25.159Z,0.32
2022-12-08T05:37:26.857Z,1.48
2022-12-08T05:41:28.851Z,0.32
2022-12-08T05:45:30.955Z,0.38
2022-12-08T05:49:32.699Z,1.90
2022-12-08T05:53:34.454Z,0.40
2022-12-08T05:57:36.197Z,1.52
2022-12-08T06:01:38.016Z,4.60
2022-12-08T06:05:41.123Z,2.63
2022-12-08T06:09:42.991Z,2.60
2022-12-08T06:13:44.710Z,0.38
2022-12-08T06:17:46.488Z,1.30
2022-12-08T06:21:48.281Z,1.10
2022-12-08T06:25:49.972Z,1.45
2022-12-08T06:29:51.784Z,5.00
2022-12-08T06:33:55.016Z,1.50
2022-12-08T06:37:56.695Z,2.58
2022-12-08T06:42:16.928Z,1.00
2022-12-08T06:46:19.893Z,0.35
2022-12-08T06:50:21.768Z,0.65
2022-12-08T06:54:23.492Z,2.05
2022-12-08T06:58:25.246Z,3.63
2022-12-08T07:02:27.038Z,0.50
2022-12-08T07:06:28.884Z,0.57
2022-12-08T07:10:31.213Z,4.97
2022-12-08T07:14:32.967Z,1.77
2022-12-08T07:18:34.859Z,0.20
2022-12-08T07:22:36.743Z,0.40
2022-12-08T07:26:38.491Z,1.10
2022-12-08T07:30:40.275Z,1.45
2022-12-08T07:34:42.024Z,2.42
2022-12-08T07:38:44.364Z,0.95
2022-12-08T07:42:46.033Z,0.60
2022-12-08T07:46:47.714Z,3.95
2022-12-08T07:50:49.435Z,1.42
2022-12-08T07:54:51.159Z,4.68
2022-12-08T07:58:53.006Z,4.80
2022-12-08T08:02:54.894Z,0.77
2022-12-08T08:06:56.681Z,2.55
2022-12-08T08:10:58.878Z,2.60
2022-12-08T08:15:01.621Z,0.60
2022-12-08T08:19:03.372Z,3.28
2022-12-08T08:23:05.048Z,2.17
2022-12-08T08:27:06.771Z,1.23
2022-12-08T08:31:08.533Z,1.30
2022-12-08T08:35:10.431Z,6.05
2022-12-08T08:39:12.691Z,3.83
2022-12-08T08:43:32.944Z,1.35
2022-12-08T08:47:39.428Z,7.80
2022-12-08T08:51:41.256Z,4.60
2022-12-08T08:55:43.005Z,1.73
2022-12-08T08:59:44.707Z,4.93
2022-12-08T09:03:47.195Z,4.10
2022-12-08T09:07:48.937Z,3.85
2022-12-08T09:11:50.637Z,1.85
2022-12-08T09:15:52.470Z,1.48
2022-12-08T09:19:54.297Z,1.75
2022-12-08T09:23:58.668Z,1.33
2022-12-08T09:28:00.538Z,4.35
2022-12-08T09:32:02.275Z,5.05
2022-12-08T09:36:05.043Z,1.02
2022-12-08T09:40:07.994Z,0.75
2022-12-08T09:44:30.977Z,6.70
2022-12-08T09:48:37.721Z,2.67
2022-12-08T09:53:12.057Z,6.72
2022-12-08T09:57:17.890Z,2.88
2022-12-08T10:01:21.561Z,1.35
2022-12-08T10:05:25.947Z,1.08
2022-12-08T10:09:45.726Z,0.60
2022-12-08T10:14:04.469Z,1.80
2022-12-08T10:22:27.097Z,2.35
2022-12-08T10:26:32.723Z,0.73
2022-12-08T10:30:34.486Z,2.05
2022-12-08T10:35:07.335Z,3.22
2022-12-08T10:39:29.884Z,2.92
2022-12-08T10:43:33.368Z,2.63
2022-12-08T10:47:44.654Z,1.15
2022-12-08T10:51:46.890Z,3.35
2022-12-08T10:55:51.914Z,4.43
2022-12-08T10:59:57.533Z,1.75
2022-12-08T11:04:01.881Z,0.65
2022-12-08T11:08:05.190Z,1.60
2022-12-08T11:12:15.042Z,1.25
2022-12-08T11:16:19.160Z,0.60
2022-12-08T11:20:23.438Z,0.45
2022-12-08T11:24:32.280Z,0.73
2022-12-08T11:28:35.215Z,1.00
2022-12-08T11:32:40.543Z,3.67
2022-12-08T11:36:42.335Z,4.35
2022-12-08T11:40:44.745Z,1.05
2022-12-08T11:45:12.114Z,0.63
2022-12-08T11:49:14.737Z,0.70
2022-12-08T11:53:26.956Z,1.73
2022-12-08T11:57:30.511Z,1.08
2022-12-08T12:01:32.219Z,0.82
2022-12-08T12:06:12.610Z,0.95
2022-12-08T12:10:09.785Z,2.45
2022-12-08T12:14:39.846Z,1.48
2022-12-08T12:18:46.665Z,1.00
2022-12-08T12:22:55.765Z,1.20
2022-12-08T12:27:07.415Z,0.65
2022-12-08T12:31:15.406Z,0.73
2022-12-08T12:35:27.563Z,2.65
2022-12-08T12:39:31.454Z,3.10
2022-12-08T12:43:35.817Z,1.65
2022-12-08T12:47:56.940Z,7.90
2022-12-08T12:51:58.940Z,0.60
2022-12-08T12:56:02.585Z,1.38
2022-12-08T13:00:04.180Z,2.30
2022-12-08T13:04:10.740Z,1.63
2022-12-08T13:08:31.440Z,1.63
2022-12-08T13:12:33.335Z,1.83
2022-12-08T13:16:38.791Z,2.97
2022-12-08T13:20:53.080Z,1.52
2022-12-08T13:25:36.848Z,2.75
2022-12-08T13:29:39.601Z,4.97
2022-12-08T13:33:41.895Z,5.95
2022-12-08T13:37:54.872Z,1.08
2022-12-08T13:42:21.805Z,1.83
2022-12-08T13:56:59.373Z,7.45
2022-12-08T14:00:22.070Z,1.13
2022-12-08T14:09:06.902Z,2.50
2022-12-08T14:13:12.555Z,2.40
2022-12-08T14:17:22.092Z,4.45
2022-12-08T14:21:34.437Z,5.30
2022-12-08T14:25:38.821Z,5.18
2022-12-08T14:29:47.736Z,4.10
2022-12-08T14:33:56.126Z,2.70
2022-12-08T14:38:01.027Z,8.80
2022-12-08T14:42:02.845Z,5.05
2022-12-08T14:46:19.351Z,1.73
2022-12-08T14:51:12.230Z,5.13
2022-12-08T14:55:16.038Z,3.78
2022-12-08T14:59:25.857Z,1.05
2022-12-08T15:03:31.543Z,1.95
2022-12-08T15:07:43.942Z,2.08
2022-12-08T15:11:45.827Z,3.38
2022-12-08T15:15:55.418Z,1.45
2022-12-08T15:19:59.012Z,1.65
2022-12-08T15:24:00.934Z,2.60
2022-12-08T15:28:03.400Z,1.23
2022-12-08T15:32:09.742Z,1.50
2022-12-08T15:36:11.820Z,3.85
2022-12-08T15:40:19.634Z,2.50
2022-12-08T15:44:21.326Z,1.90
2022-12-08T15:48:26.974Z,3.47
2022-12-08T15:52:28.628Z,3.28
2022-12-08T15:56:30.489Z,3.78
2022-12-08T16:00:53.029Z,2.90
2022-12-08T16:09:23.333Z,5.28
2022-12-08T16:13:57.662Z,7.20
2022-12-08T16:18:02.105Z,4.68
2022-12-08T16:22:44.904Z,5.00
2022-12-08T16:30:47.342Z,5.75
2022-12-08T16:34:49.744Z,4.88
2022-12-08T16:38:51.482Z,6.07
2022-12-08T16:42:53.160Z,4.65
2022-12-08T16:46:54.891Z,5.82
2022-12-08T16:50:56.714Z,3.50
2022-12-08T16:54:58.467Z,3.58
2022-12-08T16:59:00.940Z,3.85
2022-12-08T17:03:08.213Z,6.15
2022-12-08T17:07:10.042Z,7.10
2022-12-08T17:11:21.519Z,6.13
2022-12-08T17:15:25.657Z,3.63
2022-12-08T17:19:27.369Z,2.88
2022-12-08T17:23:29.183Z,5.45
2022-12-08T17:27:31.166Z,3.97
2022-12-08T17:31:33.322Z,5.60
2022-12-08T17:35:35.017Z,3.90
2022-12-08T17:39:38.278Z,3.40
2022-12-08T17:43:40.076Z,6.15
2022-12-08T17:47:41.815Z,8.90
2022-12-08T17:51:45.420Z,3.97
2022-12-08T17:55:55.800Z,4.45
2022-12-08T17:59:57.491Z,3.22
2022-12-08T18:03:59.426Z,4.47
2022-12-08T18:08:02.063Z,4.60
2022-12-08T18:12:03.887Z,3.40
2022-12-08T18:16:05.705Z,5.18
2022-12-08T18:20:08.433Z,6.15
2022-12-08T18:24:17.752Z,5.93
2022-12-08T18:28:19.515Z,3.72
2022-12-08T18:32:23.719Z,3.90
2022-12-08T18:36:26.192Z,5.88
2022-12-08T18:40:28.571Z,10.20
2022-12-08T18:44:30.681Z,5.50
2022-12-08T18:48:32.351Z,7.57
2022-12-08T18:52:34.345Z,8.23
2022-12-08T18:56:36.943Z,9.32
2022-12-08T19:00:38.664Z,9.55
2022-12-08T19:04:43.883Z,9.68
2022-12-08T19:08:45.856Z,9.30
2022-12-08T19:12:50.747Z,8.68
2022-12-08T19:16:52.567Z,12.75
2022-12-08T19:20:56.943Z,8.13
2022-12-08T19:24:58.683Z,9.70
2022-12-08T19:29:00.545Z,11.93
2022-12-08T19:33:02.297Z,10.18
2022-12-08T19:37:04.168Z,8.70
2022-12-08T19:41:24.366Z,8.73
2022-12-08T19:45:26.128Z,11.23
2022-12-08T19:49:28.461Z,10.07
2022-12-08T19:53:30.194Z,12.77
2022-12-08T19:57:31.854Z,11.45
2022-12-08T20:01:33.786Z,12.02
2022-12-08T20:05:36.825Z,12.65
2022-12-08T20:09:38.524Z,14.25
2022-12-08T20:13:45.619Z,10.70
2022-12-08T20:17:47.334Z,14.57
2022-12-08T20:21:49.165Z,13.50
2022-12-08T20:25:50.949Z,18.88
2022-12-08T20:29:52.732Z,12.95
2022-12-08T20:33:54.871Z,10.25
2022-12-08T20:37:56.577Z,16.48
2022-12-08T20:42:00.224Z,16.83
2022-12-08T20:46:13.659Z,12.60
2022-12-08T20:50:15.465Z,16.42
2022-12-08T20:54:17.241Z,13.40
2022-12-08T20:58:18.924Z,13.77
2022-12-08T21:02:20.663Z,18.60
2022-12-08T21:06:27.021Z,16.67
2022-12-08T21:10:28.895Z,17.45
2022-12-08T21:14:30.907Z,21.13
2022-12-08T21:18:38.931Z,17.23
2022-12-08T21:22:41.397Z,17.85
2022-12-08T21:26:43.348Z,19.80
2022-12-08T21:30:45.293Z,19.55
2022-12-08T21:34:47.132Z,20.42
2022-12-08T21:38:49.372Z,17.77
2022-12-08T21:42:51.840Z,17.70
2022-12-08T21:46:53.809Z,17.35
2022-12-08T21:50:56.179Z,15.40
2022-12-08T21:54:58.061Z,17.40
2022-12-08T21:58:59.899Z,23.45
2022-12-08T22:03:01.848Z,18.92
2022-12-08T22:07:03.941Z,13.15
2022-12-08T22:11:06.734Z,20.15
2022-12-08T22:15:10.276Z,21.30
2022-12-08T22:19:12.659Z,18.00
2022-12-08T22:23:14.520Z,15.80
2022-12-08T22:27:16.246Z,26.27
2022-12-08T22:31:21.036Z,26.45
2022-12-08T22:35:22.822Z,26.85
2022-12-08T22:39:24.592Z,31.73
2022-12-08T22:43:26.494Z,23.55
2022-12-08T22:47:28.162Z,25.73
2022-12-08T22:51:29.980Z,26.95
2022-12-08T22:55:31.775Z,28.67
2022-12-08T22:59:34.678Z,28.30
2022-12-08T23:03:36.517Z,21.95
2022-12-08T23:07:39.106Z,25.95
2022-12-08T23:11:40.964Z,28.00
2022-12-08T23:15:42.772Z,29.90
2022-12-08T23:19:44.864Z,34.42
2022-12-08T23:23:46.669Z,23.70
2022-12-08T23:27:48.570Z,32.15
2022-12-08T23:31:50.415Z,32.63
2022-12-08T23:35:57.700Z,36.40
2022-12-08T23:39:59.887Z,35.72
2022-12-08T23:44:01.645Z,33.60
2022-12-08T23:48:03.614Z,31.58
2022-12-08T23:52:05.445Z,23.67
2022-12-08T23:56:10.140Z,24.35
